createdAt,value
2019-01-15T00:00:09.720Z,11.37
2019-01-15T00:03:16.909Z,12.37
2019-01-15T00:06:22.540Z,10.00
2019-01-15T00:09:28.222Z,12.63
2019-01-15T00:12:33.880Z,8.97
2019-01-15T00:15:39.502Z,9.37
2019-01-15T00:18:45.203Z,7.27
2019-01-15T00:21:50.931Z,8.77
2019-01-15T00:24:56.542Z,3.80
2019-01-15T00:28:02.168Z,5.70
2019-01-15T00:31:07.773Z,8.23
2019-01-15T00:34:13.385Z,4.87
2019-01-15T00:37:19.006Z,6.97
2019-01-15T00:40:24.748Z,6.53
2019-01-15T00:43:30.378Z,6.07
2019-01-15T00:46:35.969Z,9.00
2019-01-15T00:49:41.574Z,4.37
2019-01-15T00:52:47.907Z,10.10
2019-01-15T00:55:53.576Z,5.90
2019-01-15T00:58:59.338Z,8.17
2019-01-15T01:02:05.095Z,7.33
2019-01-15T01:05:11.133Z,9.60
2019-01-15T01:08:16.758Z,3.57
2019-01-15T01:11:22.353Z,8.70
2019-01-15T01:14:27.952Z,5.03
2019-01-15T01:17:33.598Z,13.80
2019-01-15T01:20:39.273Z,5.47
2019-01-15T01:23:44.910Z,5.43
2019-01-15T01:26:50.718Z,6.60
2019-01-15T01:29:56.373Z,5.53
2019-01-15T01:33:02.018Z,8.10
2019-01-15T01:36:07.646Z,6.80
2019-01-15T01:39:13.316Z,5.03
2019-01-15T01:42:18.944Z,6.40
2019-01-15T01:45:24.656Z,8.93
2019-01-15T01:48:30.230Z,4.63
2019-01-15T01:51:35.838Z,7.57
2019-01-15T01:54:41.418Z,5.13
2019-01-15T01:57:46.987Z,4.90
2019-01-15T02:00:52.713Z,6.67
2019-01-15T02:03:58.317Z,3.77
2019-01-15T02:07:03.957Z,3.20
2019-01-15T02:10:11.972Z,5.47
2019-01-15T02:13:17.591Z,3.60
2019-01-15T02:16:23.218Z,7.10
2019-01-15T02:19:28.836Z,6.60
2019-01-15T02:22:34.551Z,4.60
2019-01-15T02:25:40.203Z,5.17
2019-01-15T02:28:45.868Z,8.17
2019-01-15T02:31:51.527Z,3.80
2019-01-15T02:34:57.201Z,5.93
2019-01-15T02:38:02.929Z,4.13
2019-01-15T02:41:08.610Z,4.03
2019-01-15T02:44:14.233Z,6.50
2019-01-15T02:47:19.868Z,4.23
2019-01-15T02:50:25.506Z,4.90
2019-01-15T02:53:31.174Z,6.43
2019-01-15T02:56:36.798Z,4.77
2019-01-15T02:59:42.388Z,4.20
2019-01-15T03:02:48.096Z,7.57
2019-01-15T03:05:53.708Z,4.57
2019-01-15T03:08:59.290Z,5.13
2019-01-15T03:12:04.883Z,4.47
2019-01-15T03:15:10.708Z,8.03
2019-01-15T03:18:16.297Z,6.43
2019-01-15T03:21:21.918Z,7.07
2019-01-15T03:24:27.536Z,5.00
2019-01-15T03:27:33.177Z,5.07
2019-01-15T03:30:39.026Z,4.80
2019-01-15T03:33:44.848Z,8.33
2019-01-15T03:36:50.507Z,5.00
2019-01-15T03:39:56.254Z,7.87
2019-01-15T03:43:03.853Z,5.23
2019-01-15T03:46:09.187Z,6.20
2019-01-15T03:49:14.805Z,5.37
2019-01-15T03:52:20.463Z,7.77
2019-01-15T03:55:26.125Z,5.63
2019-01-15T03:58:31.798Z,7.83
2019-01-15T04:01:37.484Z,4.90
2019-01-15T04:04:43.790Z,7.70
2019-01-15T04:07:53.154Z,4.17
2019-01-15T04:10:58.878Z,5.03
2019-01-15T04:14:04.559Z,4.57
2019-01-15T04:17:10.190Z,9.40
2019-01-15T04:20:16.365Z,8.87
2019-01-15T04:23:21.982Z,8.50
2019-01-15T04:26:27.593Z,9.03
2019-01-15T04:29:33.226Z,5.07
2019-01-15T04:32:38.817Z,5.83
2019-01-15T04:35:44.444Z,4.87
2019-01-15T04:38:50.101Z,8.17
2019-01-15T04:41:55.722Z,3.77
2019-01-15T04:45:01.333Z,5.60
2019-01-15T04:48:08.076Z,3.17
2019-01-15T04:51:13.729Z,4.73
2019-01-15T04:54:19.374Z,4.70
2019-01-15T04:57:25.124Z,5.70
2019-01-15T05:00:30.744Z,6.33
2019-01-15T05:03:36.374Z,9.80
2019-01-15T05:06:41.969Z,4.47
2019-01-15T05:09:47.591Z,5.07
2019-01-15T05:12:53.293Z,5.97
2019-01-15T05:15:58.909Z,5.47
2019-01-15T05:19:04.762Z,7.90
2019-01-15T05:22:10.419Z,6.23
2019-01-15T05:25:18.446Z,6.17
2019-01-15T05:28:24.092Z,5.77
2019-01-15T05:31:29.688Z,4.60
2019-01-15T05:34:35.273Z,4.13
2019-01-15T05:37:40.851Z,7.37
2019-01-15T05:40:46.442Z,5.83
2019-01-15T05:43:52.079Z,8.43
2019-01-15T05:46:57.723Z,3.70
2019-01-15T05:50:03.483Z,7.57
2019-01-15T05:53:09.163Z,6.57
2019-01-15T05:56:14.831Z,4.80
2019-01-15T05:59:20.486Z,7.23
2019-01-15T06:02:26.100Z,7.70
2019-01-15T06:05:31.739Z,3.97
2019-01-15T06:08:37.455Z,10.20
2019-01-15T06:11:43.134Z,9.43
2019-01-15T06:14:48.751Z,5.27
2019-01-15T06:17:54.341Z,8.33
2019-01-15T06:20:59.963Z,13.40
2019-01-15T06:24:05.790Z,7.33
2019-01-15T06:27:11.375Z,4.20
2019-01-15T06:30:17.437Z,5.47
2019-01-15T06:33:23.172Z,11.17
2019-01-15T06:36:28.740Z,2.87
2019-01-15T06:39:34.390Z,10.50
2019-01-15T06:42:40.000Z,6.93
2019-01-15T06:45:45.653Z,8.10
2019-01-15T06:48:51.815Z,26.10
2019-01-15T06:51:57.634Z,7.50
2019-01-15T06:55:03.388Z,8.60
2019-01-15T06:58:11.939Z,5.87
2019-01-15T07:01:17.686Z,5.63
2019-01-15T07:04:23.279Z,11.87
2019-01-15T07:07:28.894Z,10.13
2019-01-15T07:10:37.388Z,8.27
2019-01-15T07:13:45.801Z,8.03
2019-01-15T07:16:51.412Z,8.37
2019-01-15T07:19:57.029Z,4.90
2019-01-15T07:23:02.654Z,6.33
2019-01-15T07:26:08.282Z,7.30
2019-01-15T07:29:13.987Z,10.27
2019-01-15T07:32:19.666Z,9.23
2019-01-15T07:35:26.320Z,6.43
2019-01-15T07:38:32.047Z,11.70
2019-01-15T07:41:37.715Z,9.33
2019-01-15T07:44:43.402Z,6.03
2019-01-15T07:47:49.058Z,6.93
2019-01-15T07:50:54.636Z,5.33
2019-01-15T07:54:00.265Z,5.50
2019-01-15T07:57:06.081Z,7.80
2019-01-15T08:00:17.570Z,9.03
2019-01-15T08:03:23.307Z,4.17
2019-01-15T08:06:28.989Z,14.17
2019-01-15T08:09:34.651Z,8.33
2019-01-15T08:12:40.392Z,10.53
2019-01-15T08:15:46.050Z,7.00
2019-01-15T08:18:51.693Z,10.87
2019-01-15T08:21:57.421Z,14.17
2019-01-15T08:25:03.042Z,10.60
2019-01-15T08:28:08.727Z,7.90
2019-01-15T08:31:15.291Z,5.17
2019-01-15T08:34:20.902Z,6.93
2019-01-15T08:37:26.550Z,11.30
2019-01-15T08:40:32.261Z,10.50
2019-01-15T08:43:37.849Z,10.23
2019-01-15T08:46:44.779Z,13.87
2019-01-15T08:49:50.386Z,11.47
2019-01-15T08:52:56.153Z,11.63
2019-01-15T08:56:01.872Z,7.83
2019-01-15T08:59:07.686Z,7.23
2019-01-15T09:02:14.955Z,15.67
2019-01-15T09:05:20.478Z,12.83
2019-01-15T09:08:26.108Z,21.17
2019-01-15T09:11:31.741Z,10.37
2019-01-15T09:14:37.339Z,6.10
2019-01-15T09:17:43.171Z,10.37
2019-01-15T09:20:48.822Z,9.27
2019-01-15T09:23:54.487Z,6.67
2019-01-15T09:27:00.126Z,59.13
2019-01-15T09:30:08.153Z,12.77
2019-01-15T09:33:13.911Z,6.87
2019-01-15T09:36:19.554Z,9.53
2019-01-15T09:39:25.164Z,16.90
2019-01-15T09:42:30.753Z,11.70
2019-01-15T09:45:36.354Z,12.70
2019-01-15T09:48:42.161Z,12.90
2019-01-15T09:51:47.890Z,9.13
2019-01-15T09:54:53.653Z,9.40
2019-01-15T09:57:59.394Z,7.30
2019-01-15T10:01:05.220Z,13.47
2019-01-15T10:04:10.812Z,8.43
2019-01-15T10:07:16.421Z,4.73
2019-01-15T10:10:22.157Z,6.80
2019-01-15T10:13:27.856Z,8.47
2019-01-15T10:16:33.640Z,7.57
2019-01-15T10:19:40.414Z,7.87
2019-01-15T10:22:46.276Z,4.00
2019-01-15T10:25:53.577Z,9.57
2019-01-15T10:28:59.190Z,5.10
2019-01-15T10:32:47.448Z,6.20
2019-01-15T10:35:55.131Z,7.03
2019-01-15T10:39:00.783Z,14.77
2019-01-15T10:42:08.111Z,6.40
2019-01-15T10:45:13.999Z,5.63
2019-01-15T10:48:19.661Z,10.50
2019-01-15T10:51:25.336Z,9.03
2019-01-15T10:54:31.000Z,5.67
2019-01-15T10:57:36.609Z,7.00
2019-01-15T11:00:42.270Z,9.67
2019-01-15T11:03:47.836Z,5.67
2019-01-15T11:06:53.435Z,9.87
2019-01-15T11:09:59.058Z,4.77
2019-01-15T11:13:05.887Z,5.37
2019-01-15T11:16:11.592Z,7.27
2019-01-15T11:19:17.287Z,5.27
2019-01-15T11:22:23.049Z,4.37
2019-01-15T11:25:28.703Z,5.60
2019-01-15T11:28:34.556Z,5.17
2019-01-15T11:31:40.285Z,11.50
2019-01-15T11:34:46.326Z,11.40
2019-01-15T11:37:52.185Z,10.03
2019-01-15T11:40:57.982Z,6.83
2019-01-15T11:44:03.665Z,5.50
2019-01-15T11:47:09.353Z,7.10
2019-01-15T11:50:17.465Z,3.40
2019-01-15T11:53:23.132Z,11.70
2019-01-15T11:56:28.805Z,8.73
2019-01-15T11:59:34.591Z,7.37
2019-01-15T12:02:54.479Z,5.77
2019-01-15T12:06:24.897Z,5.80
2019-01-15T12:09:49.470Z,8.63
2019-01-15T12:13:14.198Z,6.07
2019-01-15T12:16:43.960Z,8.83
2019-01-15T12:20:14.406Z,10.77
2019-01-15T12:23:57.419Z,7.40
2019-01-15T12:27:24.666Z,4.60
2019-01-15T12:30:50.608Z,6.60
2019-01-15T12:34:15.239Z,6.70
2019-01-15T12:37:38.377Z,8.30
2019-01-15T12:41:09.141Z,5.43
2019-01-15T12:44:39.703Z,4.30
2019-01-15T12:48:19.354Z,9.77
2019-01-15T12:51:43.842Z,8.33
2019-01-15T12:55:20.784Z,3.87
2019-01-15T12:58:48.585Z,5.70
2019-01-15T13:02:12.097Z,7.77
2019-01-15T13:05:36.671Z,5.23
2019-01-15T13:08:54.255Z,4.23
2019-01-15T13:12:37.198Z,5.70
2019-01-15T13:16:00.634Z,7.10
2019-01-15T13:19:43.988Z,7.10
2019-01-15T13:23:03.359Z,4.20
2019-01-15T13:26:26.557Z,4.30
2019-01-15T13:29:43.597Z,6.10
2019-01-15T13:33:10.879Z,4.80
2019-01-15T13:36:29.501Z,7.33
2019-01-15T13:39:45.050Z,4.47
2019-01-15T13:43:21.623Z,11.23
2019-01-15T13:46:52.291Z,9.67
2019-01-15T13:50:13.266Z,19.60
2019-01-15T13:53:36.521Z,5.83
2019-01-15T13:57:00.965Z,6.73
2019-01-15T14:00:37.952Z,4.43
2019-01-15T14:03:54.906Z,9.93
2019-01-15T14:07:18.344Z,4.10
2019-01-15T14:10:49.217Z,5.67
2019-01-15T14:14:19.568Z,7.17
2019-01-15T14:17:37.993Z,5.20
2019-01-15T14:21:02.499Z,9.53
2019-01-15T14:24:29.985Z,5.47
2019-01-15T14:27:53.287Z,4.70
2019-01-15T14:31:26.680Z,4.50
2019-01-15T14:34:49.689Z,5.07
2019-01-15T14:38:13.469Z,4.53
2019-01-15T14:41:40.762Z,5.67
2019-01-15T14:45:04.278Z,6.10
2019-01-15T14:48:27.458Z,9.20
2019-01-15T14:51:50.844Z,7.23
2019-01-15T14:55:33.905Z,8.73
2019-01-15T14:59:11.483Z,10.13
2019-01-15T15:02:34.808Z,8.23
2019-01-15T15:05:59.239Z,8.10
2019-01-15T15:09:25.717Z,7.63
2019-01-15T15:13:02.413Z,7.73
2019-01-15T15:16:28.462Z,5.97
2019-01-15T15:19:56.059Z,5.43
2019-01-15T15:23:32.871Z,4.70
2019-01-15T15:26:56.368Z,5.97
2019-01-15T15:30:12.203Z,8.73
2019-01-15T15:33:55.062Z,12.57
2019-01-15T15:37:22.641Z,7.30
2019-01-15T15:40:50.094Z,8.63
2019-01-15T15:44:24.796Z,5.73
2019-01-15T15:47:49.301Z,3.83
2019-01-15T15:51:13.125Z,5.57
2019-01-15T15:54:40.715Z,4.73
2019-01-15T15:58:14.330Z,5.97
2019-01-15T16:01:37.898Z,11.83
2019-01-15T16:05:20.888Z,12.20
2019-01-15T16:08:50.519Z,26.73
2019-01-15T16:12:13.772Z,47.80
2019-01-15T16:15:37.212Z,46.63
2019-01-15T16:19:00.386Z,41.70
2019-01-15T16:22:27.955Z,51.53
2019-01-15T16:25:51.560Z,51.77
2019-01-15T16:29:09.567Z,43.07
2019-01-15T16:32:34.071Z,36.20
2019-01-15T16:36:04.717Z,32.47
2019-01-15T16:39:21.680Z,36.33
2019-01-15T16:42:55.288Z,37.30
2019-01-15T16:46:17.135Z,36.53
2019-01-15T16:49:43.798Z,26.93
2019-01-15T16:53:07.233Z,15.70
2019-01-15T16:56:33.673Z,110.93
2019-01-15T16:59:52.494Z,21.37
2019-01-15T17:03:15.879Z,28.43
2019-01-15T17:06:39.015Z,17.73
2019-01-15T17:09:58.302Z,18.23
2019-01-15T17:13:33.548Z,14.30
2019-01-15T17:17:01.114Z,14.10
2019-01-15T17:20:29.928Z,11.13
2019-01-15T17:23:44.783Z,13.20
2019-01-15T17:27:07.853Z,15.07
2019-01-15T17:30:36.810Z,10.63
2019-01-15T17:33:59.776Z,12.10
2019-01-15T17:37:23.035Z,23.27
2019-01-15T17:41:02.873Z,26.67
2019-01-15T17:44:27.432Z,50.77
2019-01-15T17:47:58.151Z,52.87
2019-01-15T17:51:21.620Z,44.90
2019-01-15T17:54:54.995Z,51.13
2019-01-15T17:58:18.343Z,39.43
2019-01-15T18:02:26.395Z,33.77
2019-01-15T18:06:12.014Z,32.83
2019-01-15T18:09:50.522Z,28.63
2019-01-15T18:13:43.829Z,21.17
2019-01-15T18:17:17.390Z,20.13
2019-01-15T18:20:47.062Z,16.53
2019-01-15T18:25:03.201Z,21.57
2019-01-15T18:28:32.181Z,38.77
2019-01-15T18:32:49.557Z,19.30
2019-01-15T18:36:16.576Z,23.07
2019-01-15T18:39:44.101Z,19.30
2019-01-15T18:43:12.993Z,26.67
2019-01-15T18:46:36.338Z,18.30
2019-01-15T18:49:59.769Z,18.93
2019-01-15T18:53:27.197Z,18.23
2019-01-15T18:56:52.789Z,20.50
2019-01-15T19:00:15.939Z,20.20
2019-01-15T19:03:49.819Z,14.30
2019-01-15T19:07:23.442Z,15.57
2019-01-15T19:11:00.143Z,22.00
2019-01-15T19:14:43.179Z,15.70
2019-01-15T19:18:02.107Z,14.50
2019-01-15T19:21:26.111Z,16.90
2019-01-15T19:24:50.644Z,15.63
2019-01-15T19:28:30.332Z,17.97
2019-01-15T19:32:00.784Z,17.43
2019-01-15T19:35:35.553Z,16.13
2019-01-15T19:38:58.864Z,15.40
2019-01-15T19:42:22.207Z,12.57
2019-01-15T19:45:56.078Z,13.57
2019-01-15T19:49:19.463Z,13.43
2019-01-15T19:52:37.792Z,13.17
2019-01-15T19:56:08.886Z,13.50
2019-01-15T19:59:21.732Z,17.17
2019-01-15T20:02:46.210Z,16.93
2019-01-15T20:06:09.812Z,19.77
2019-01-15T20:09:52.588Z,10.13
2019-01-15T20:13:22.942Z,11.97
2019-01-15T20:16:51.461Z,15.77
2019-01-15T20:20:14.629Z,15.57
2019-01-15T20:23:45.022Z,12.80
2019-01-15T20:27:08.225Z,12.37
2019-01-15T20:30:32.740Z,18.73
2019-01-15T20:34:09.561Z,7.87
2019-01-15T20:37:32.708Z,18.53
2019-01-15T20:41:03.029Z,21.60
2019-01-15T20:44:20.793Z,11.97
2019-01-15T20:47:45.659Z,18.57
2019-01-15T20:51:10.180Z,27.67
2019-01-15T20:54:33.749Z,16.90
2019-01-15T20:58:04.619Z,13.93
2019-01-15T21:01:28.074Z,14.00
2019-01-15T21:04:52.415Z,20.10
2019-01-15T21:08:08.544Z,14.30
2019-01-15T21:11:48.308Z,16.10
2019-01-15T21:15:11.529Z,10.33
2019-01-15T21:18:34.842Z,10.50
2019-01-15T21:21:53.425Z,16.27
2019-01-15T21:25:21.182Z,22.80
2019-01-15T21:28:34.772Z,16.40
2019-01-15T21:31:57.863Z,6.77
2019-01-15T21:35:37.897Z,12.43
2019-01-15T21:39:01.251Z,9.87
2019-01-15T21:42:39.409Z,8.50
2019-01-15T21:46:03.883Z,7.27
2019-01-15T21:49:28.340Z,11.13
2019-01-15T21:52:51.862Z,11.83
2019-01-15T21:56:22.644Z,11.93
2019-01-15T21:59:50.203Z,11.23
2019-01-15T22:03:17.675Z,19.60
2019-01-15T22:06:38.819Z,21.30
2019-01-15T22:10:03.353Z,34.57
2019-01-15T22:13:36.985Z,22.57
2019-01-15T22:17:01.988Z,9.30
2019-01-15T22:20:31.169Z,20.23
2019-01-15T22:24:01.522Z,11.27
2019-01-15T22:27:23.760Z,17.70
2019-01-15T22:30:48.235Z,9.70
2019-01-15T22:34:24.776Z,14.13
2019-01-15T22:38:07.440Z,14.80
2019-01-15T22:41:23.745Z,10.27
2019-01-15T22:45:06.433Z,20.47
2019-01-15T22:48:34.686Z,18.03
2019-01-15T22:52:08.434Z,16.97
2019-01-15T22:55:33.025Z,17.57
2019-01-15T22:58:57.498Z,27.47
2019-01-15T23:02:31.995Z,17.20
2019-01-15T23:05:55.144Z,9.97
2019-01-15T23:09:18.317Z,16.73
2019-01-15T23:12:51.894Z,8.00
2019-01-15T23:16:22.648Z,7.10
2019-01-15T23:19:49.917Z,10.93
2019-01-15T23:23:13.459Z,9.03
2019-01-15T23:26:33.929Z,6.77
2019-01-15T23:29:57.333Z,9.17
2019-01-15T23:33:21.788Z,6.97
2019-01-15T23:36:46.446Z,11.77
2019-01-15T23:40:25.830Z,12.40
2019-01-15T23:44:05.594Z,12.90
2019-01-15T23:47:41.445Z,7.43
2019-01-15T23:50:59.197Z,11.17
2019-01-15T23:54:22.512Z,12.70
2019-01-15T23:57:52.851Z,9.43
